sensor_id;sensor_type;location;lat;lon;timestamp;P1;durP1;ratioP1;P2;durP2;ratioP2
64188;SDS011;50493;50.970;10.082;2023-05-09T00:02:04;4.45;;;2.70;;
64188;SDS011;50493;50.970;10.082;2023-05-09T00:04:30;3.50;;;2.47;;
64188;SDS011;50493;50.970;10.082;2023-05-09T00:06:56;4.65;;;2.85;;
64188;SDS011;50493;50.970;10.082;2023-05-09T00:09:22;3.63;;;2.50;;
64188;SDS011;50493;50.970;10.082;2023-05-09T00:11:47;4.82;;;2.88;;
64188;SDS011;50493;50.970;10.082;2023-05-09T00:14:12;3.60;;;2.50;;
64188;SDS011;50493;50.970;10.082;2023-05-09T00:16:39;4.57;;;2.60;;
64188;SDS011;50493;50.970;10.082;2023-05-09T00:19:04;4.50;;;2.42;;
64188;SDS011;50493;50.970;10.082;2023-05-09T00:21:31;4.95;;;2.70;;
64188;SDS011;50493;50.970;10.082;2023-05-09T00:23:56;4.20;;;2.80;;
64188;SDS011;50493;50.970;10.082;2023-05-09T00:26:22;4.90;;;2.75;;
64188;SDS011;50493;50.970;10.082;2023-05-09T00:28:47;4.78;;;2.72;;
64188;SDS011;50493;50.970;10.082;2023-05-09T00:31:13;5.15;;;2.90;;
64188;SDS011;50493;50.970;10.082;2023-05-09T00:33:39;5.63;;;2.72;;
64188;SDS011;50493;50.970;10.082;2023-05-09T00:36:05;4.70;;;3.10;;
64188;SDS011;50493;50.970;10.082;2023-05-09T00:38:31;5.05;;;2.83;;
64188;SDS011;50493;50.970;10.082;2023-05-09T00:40:56;4.07;;;2.72;;
64188;SDS011;50493;50.970;10.082;2023-05-09T00:43:21;4.75;;;2.85;;
64188;SDS011;50493;50.970;10.082;2023-05-09T00:45:47;4.38;;;2.90;;
64188;SDS011;50493;50.970;10.082;2023-05-09T00:48:13;4.20;;;2.83;;
64188;SDS011;50493;50.970;10.082;2023-05-09T00:50:40;5.57;;;3.03;;
64188;SDS011;50493;50.970;10.082;2023-05-09T00:53:05;4.90;;;3.30;;
64188;SDS011;50493;50.970;10.082;2023-05-09T00:55:31;4.82;;;2.88;;
64188;SDS011;50493;50.970;10.082;2023-05-09T00:57:57;5.05;;;3.40;;
64188;SDS011;50493;50.970;10.082;2023-05-09T01:00:22;5.28;;;2.95;;
64188;SDS011;50493;50.970;10.082;2023-05-09T01:02:48;5.45;;;2.92;;
64188;SDS011;50493;50.970;10.082;2023-05-09T01:05:16;3.85;;;2.90;;
64188;SDS011;50493;50.970;10.082;2023-05-09T01:07:44;4.88;;;3.03;;
64188;SDS011;50493;50.970;10.082;2023-05-09T01:10:19;4.93;;;2.88;;
64188;SDS011;50493;50.970;10.082;2023-05-09T01:12:51;5.70;;;2.90;;
64188;SDS011;50493;50.970;10.082;2023-05-09T01:15:23;4.72;;;3.08;;
64188;SDS011;50493;50.970;10.082;2023-05-09T01:17:56;4.90;;;3.08;;
64188;SDS011;50493;50.970;10.082;2023-05-09T01:20:26;4.63;;;3.10;;
64188;SDS011;50493;50.970;10.082;2023-05-09T01:23:03;5.03;;;3.10;;
64188;SDS011;50493;50.970;10.082;2023-05-09T01:25:48;4.78;;;3.08;;
64188;SDS011;50493;50.970;10.082;2023-05-09T01:28:33;5.25;;;3.05;;
64188;SDS011;50493;50.970;10.082;2023-05-09T01:31:03;4.40;;;3.10;;
64188;SDS011;50493;50.970;10.082;2023-05-09T01:33:30;5.25;;;3.25;;
64188;SDS011;50493;50.970;10.082;2023-05-09T01:36:00;4.50;;;3.10;;
64188;SDS011;50493;50.970;10.082;2023-05-09T01:38:29;5.35;;;3.00;;
64188;SDS011;50493;50.970;10.082;2023-05-09T01:40:56;4.88;;;3.20;;
64188;SDS011;50493;50.970;10.082;2023-05-09T01:43:24;7.50;;;3.67;;
64188;SDS011;50493;50.970;10.082;2023-05-09T01:45:52;5.53;;;3.40;;
64188;SDS011;50493;50.970;10.082;2023-05-09T01:48:20;4.30;;;2.90;;
64188;SDS011;50493;50.970;10.082;2023-05-09T01:50:50;4.97;;;3.20;;
64188;SDS011;50493;50.970;10.082;2023-05-09T01:53:17;5.30;;;3.40;;
64188;SDS011;50493;50.970;10.082;2023-05-09T01:55:45;5.95;;;3.35;;
64188;SDS011;50493;50.970;10.082;2023-05-09T01:58:12;4.75;;;3.50;;
64188;SDS011;50493;50.970;10.082;2023-05-09T02:00:39;5.90;;;3.40;;
64188;SDS011;50493;50.970;10.082;2023-05-09T02:03:06;4.75;;;3.00;;
64188;SDS011;50493;50.970;10.082;2023-05-09T02:05:32;4.72;;;3.30;;
64188;SDS011;50493;50.970;10.082;2023-05-09T02:07:58;5.35;;;3.33;;
64188;SDS011;50493;50.970;10.082;2023-05-09T02:10:24;5.30;;;3.55;;
64188;SDS011;50493;50.970;10.082;2023-05-09T02:12:51;5.35;;;3.60;;
64188;SDS011;50493;50.970;10.082;2023-05-09T02:15:16;5.03;;;3.45;;
64188;SDS011;50493;50.970;10.082;2023-05-09T02:17:42;10.65;;;3.47;;
64188;SDS011;50493;50.970;10.082;2023-05-09T02:20:07;4.88;;;3.47;;
64188;SDS011;50493;50.970;10.082;2023-05-09T02:22:39;6.60;;;3.50;;
64188;SDS011;50493;50.970;10.082;2023-05-09T02:25:07;5.18;;;3.63;;
64188;SDS011;50493;50.970;10.082;2023-05-09T02:27:34;4.70;;;3.47;;
64188;SDS011;50493;50.970;10.082;2023-05-09T02:30:03;5.22;;;3.40;;
64188;SDS011;50493;50.970;10.082;2023-05-09T02:32:33;5.47;;;3.60;;
64188;SDS011;50493;50.970;10.082;2023-05-09T02:35:01;6.10;;;3.63;;
64188;SDS011;50493;50.970;10.082;2023-05-09T02:37:28;5.30;;;3.53;;
64188;SDS011;50493;50.970;10.082;2023-05-09T02:39:55;5.47;;;3.63;;
64188;SDS011;50493;50.970;10.082;2023-05-09T02:42:21;5.13;;;3.42;;
64188;SDS011;50493;50.970;10.082;2023-05-09T02:44:49;5.90;;;3.50;;
64188;SDS011;50493;50.970;10.082;2023-05-09T02:47:14;5.45;;;3.63;;
64188;SDS011;50493;50.970;10.082;2023-05-09T02:49:40;5.82;;;3.47;;
64188;SDS011;50493;50.970;10.082;2023-05-09T02:52:05;5.20;;;3.55;;
64188;SDS011;50493;50.970;10.082;2023-05-09T02:54:30;6.47;;;3.85;;
64188;SDS011;50493;50.970;10.082;2023-05-09T02:56:57;5.95;;;3.58;;
64188;SDS011;50493;50.970;10.082;2023-05-09T02:59:23;6.30;;;4.07;;
64188;SDS011;50493;50.970;10.082;2023-05-09T03:01:48;5.70;;;3.67;;
64188;SDS011;50493;50.970;10.082;2023-05-09T03:04:14;5.47;;;3.80;;
64188;SDS011;50493;50.970;10.082;2023-05-09T03:06:40;5.18;;;3.53;;
64188;SDS011;50493;50.970;10.082;2023-05-09T03:09:06;5.15;;;3.67;;
64188;SDS011;50493;50.970;10.082;2023-05-09T03:11:31;4.97;;;3.45;;
64188;SDS011;50493;50.970;10.082;2023-05-09T03:13:58;5.50;;;3.58;;
64188;SDS011;50493;50.970;10.082;2023-05-09T03:16:23;6.25;;;3.70;;
64188;SDS011;50493;50.970;10.082;2023-05-09T03:18:48;6.13;;;4.10;;
64188;SDS011;50493;50.970;10.082;2023-05-09T03:21:14;5.25;;;3.85;;
64188;SDS011;50493;50.970;10.082;2023-05-09T03:23:39;5.18;;;3.45;;
64188;SDS011;50493;50.970;10.082;2023-05-09T03:26:05;5.07;;;3.42;;
64188;SDS011;50493;50.970;10.082;2023-05-09T03:28:30;6.28;;;3.80;;
64188;SDS011;50493;50.970;10.082;2023-05-09T03:30:57;6.80;;;3.90;;
64188;SDS011;50493;50.970;10.082;2023-05-09T03:33:22;6.88;;;3.80;;
64188;SDS011;50493;50.970;10.082;2023-05-09T03:35:48;5.22;;;3.53;;
64188;SDS011;50493;50.970;10.082;2023-05-09T03:38:13;6.25;;;4.00;;
64188;SDS011;50493;50.970;10.082;2023-05-09T03:40:38;6.28;;;4.22;;
64188;SDS011;50493;50.970;10.082;2023-05-09T03:43:04;6.13;;;3.70;;
64188;SDS011;50493;50.970;10.082;2023-05-09T03:45:29;5.93;;;3.60;;
64188;SDS011;50493;50.970;10.082;2023-05-09T03:47:56;5.95;;;3.97;;
64188;SDS011;50493;50.970;10.082;2023-05-09T03:50:21;5.88;;;3.80;;
64188;SDS011;50493;50.970;10.082;2023-05-09T03:52:47;5.50;;;3.55;;
64188;SDS011;50493;50.970;10.082;2023-05-09T03:55:12;7.40;;;4.20;;
64188;SDS011;50493;50.970;10.082;2023-05-09T03:57:37;6.25;;;4.10;;
64188;SDS011;50493;50.970;10.082;2023-05-09T04:00:03;5.47;;;3.53;;
64188;SDS011;50493;50.970;10.082;2023-05-09T04:02:31;6.88;;;4.13;;
64188;SDS011;50493;50.970;10.082;2023-05-09T04:04:58;5.82;;;3.67;;
64188;SDS011;50493;50.970;10.082;2023-05-09T04:07:24;5.35;;;3.90;;
64188;SDS011;50493;50.970;10.082;2023-05-09T04:09:50;6.00;;;3.75;;
64188;SDS011;50493;50.970;10.082;2023-05-09T04:12:15;6.75;;;4.20;;
64188;SDS011;50493;50.970;10.082;2023-05-09T04:14:41;7.07;;;3.90;;
64188;SDS011;50493;50.970;10.082;2023-05-09T04:17:07;5.60;;;3.95;;
64188;SDS011;50493;50.970;10.082;2023-05-09T04:19:32;6.70;;;4.03;;
64188;SDS011;50493;50.970;10.082;2023-05-09T04:21:59;6.10;;;3.80;;
64188;SDS011;50493;50.970;10.082;2023-05-09T04:24:24;5.65;;;4.00;;
64188;SDS011;50493;50.970;10.082;2023-05-09T04:26:50;5.45;;;3.45;;
64188;SDS011;50493;50.970;10.082;2023-05-09T04:29:16;5.03;;;3.67;;
64188;SDS011;50493;50.970;10.082;2023-05-09T04:31:41;6.30;;;3.80;;
64188;SDS011;50493;50.970;10.082;2023-05-09T04:34:06;6.03;;;3.63;;
64188;SDS011;50493;50.970;10.082;2023-05-09T04:36:32;6.28;;;3.42;;
64188;SDS011;50493;50.970;10.082;2023-05-09T04:38:59;5.20;;;3.25;;
64188;SDS011;50493;50.970;10.082;2023-05-09T04:41:24;5.68;;;3.50;;
64188;SDS011;50493;50.970;10.082;2023-05-09T04:43:50;5.22;;;3.60;;
64188;SDS011;50493;50.970;10.082;2023-05-09T04:46:16;5.05;;;3.58;;
64188;SDS011;50493;50.970;10.082;2023-05-09T04:48:41;5.55;;;3.47;;
64188;SDS011;50493;50.970;10.082;2023-05-09T04:51:07;5.32;;;3.58;;
64188;SDS011;50493;50.970;10.082;2023-05-09T04:53:32;6.55;;;3.65;;
64188;SDS011;50493;50.970;10.082;2023-05-09T04:55:59;6.20;;;3.83;;
64188;SDS011;50493;50.970;10.082;2023-05-09T04:58:25;5.53;;;3.95;;
64188;SDS011;50493;50.970;10.082;2023-05-09T05:00:50;5.63;;;3.45;;
64188;SDS011;50493;50.970;10.082;2023-05-09T05:03:16;5.95;;;4.10;;
64188;SDS011;50493;50.970;10.082;2023-05-09T05:05:42;7.20;;;5.10;;
64188;SDS011;50493;50.970;10.082;2023-05-09T05:08:07;7.07;;;4.00;;
64188;SDS011;50493;50.970;10.082;2023-05-09T05:10:32;5.70;;;4.10;;
64188;SDS011;50493;50.970;10.082;2023-05-09T05:12:59;5.38;;;3.78;;
64188;SDS011;50493;50.970;10.082;2023-05-09T05:15:24;6.07;;;4.40;;
64188;SDS011;50493;50.970;10.082;2023-05-09T05:17:50;7.28;;;4.40;;
64188;SDS011;50493;50.970;10.082;2023-05-09T05:20:16;8.13;;;4.53;;
64188;SDS011;50493;50.970;10.082;2023-05-09T05:22:41;7.15;;;4.75;;
64188;SDS011;50493;50.970;10.082;2023-05-09T05:25:07;7.55;;;4.65;;
64188;SDS011;50493;50.970;10.082;2023-05-09T05:27:33;7.20;;;4.55;;
64188;SDS011;50493;50.970;10.082;2023-05-09T05:29:59;9.48;;;4.40;;
64188;SDS011;50493;50.970;10.082;2023-05-09T05:32:25;6.07;;;4.00;;
64188;SDS011;50493;50.970;10.082;2023-05-09T05:34:50;7.18;;;4.40;;
64188;SDS011;50493;50.970;10.082;2023-05-09T05:37:15;6.32;;;4.25;;
64188;SDS011;50493;50.970;10.082;2023-05-09T05:39:41;5.50;;;4.00;;
64188;SDS011;50493;50.970;10.082;2023-05-09T05:42:06;6.97;;;4.18;;
64188;SDS011;50493;50.970;10.082;2023-05-09T05:44:32;6.22;;;4.20;;
64188;SDS011;50493;50.970;10.082;2023-05-09T05:46:58;5.65;;;3.88;;
64188;SDS011;50493;50.970;10.082;2023-05-09T05:49:23;6.43;;;4.25;;
64188;SDS011;50493;50.970;10.082;2023-05-09T05:51:49;6.95;;;4.25;;
64188;SDS011;50493;50.970;10.082;2023-05-09T05:54:14;5.78;;;4.30;;
64188;SDS011;50493;50.970;10.082;2023-05-09T05:56:40;5.80;;;4.10;;
64188;SDS011;50493;50.970;10.082;2023-05-09T05:59:05;6.70;;;4.57;;
64188;SDS011;50493;50.970;10.082;2023-05-09T06:01:30;5.63;;;4.00;;
64188;SDS011;50493;50.970;10.082;2023-05-09T06:03:57;4.72;;;3.45;;
64188;SDS011;50493;50.970;10.082;2023-05-09T06:06:22;7.15;;;4.00;;
64188;SDS011;50493;50.970;10.082;2023-05-09T06:08:50;6.93;;;4.50;;
64188;SDS011;50493;50.970;10.082;2023-05-09T06:11:15;5.53;;;3.97;;
64188;SDS011;50493;50.970;10.082;2023-05-09T06:13:40;7.05;;;4.85;;
64188;SDS011;50493;50.970;10.082;2023-05-09T06:16:06;8.40;;;4.38;;
64188;SDS011;50493;50.970;10.082;2023-05-09T06:18:32;5.90;;;3.88;;
64188;SDS011;50493;50.970;10.082;2023-05-09T06:21:00;5.82;;;3.90;;
64188;SDS011;50493;50.970;10.082;2023-05-09T06:23:26;5.47;;;3.80;;
64188;SDS011;50493;50.970;10.082;2023-05-09T06:25:51;5.70;;;3.80;;
64188;SDS011;50493;50.970;10.082;2023-05-09T06:28:16;4.60;;;3.63;;
64188;SDS011;50493;50.970;10.082;2023-05-09T06:30:42;5.57;;;3.90;;
64188;SDS011;50493;50.970;10.082;2023-05-09T06:33:07;5.53;;;3.70;;
64188;SDS011;50493;50.970;10.082;2023-05-09T06:35:33;5.97;;;4.05;;
64188;SDS011;50493;50.970;10.082;2023-05-09T06:37:59;5.15;;;4.05;;
64188;SDS011;50493;50.970;10.082;2023-05-09T06:40:25;4.45;;;3.65;;
64188;SDS011;50493;50.970;10.082;2023-05-09T06:42:50;5.75;;;4.20;;
64188;SDS011;50493;50.970;10.082;2023-05-09T06:45:16;5.28;;;3.75;;
64188;SDS011;50493;50.970;10.082;2023-05-09T06:47:41;5.40;;;3.35;;
64188;SDS011;50493;50.970;10.082;2023-05-09T06:50:07;4.80;;;3.60;;
64188;SDS011;50493;50.970;10.082;2023-05-09T06:52:32;5.95;;;4.15;;
64188;SDS011;50493;50.970;10.082;2023-05-09T06:54:59;7.53;;;4.75;;
64188;SDS011;50493;50.970;10.082;2023-05-09T06:57:24;4.63;;;3.42;;
64188;SDS011;50493;50.970;10.082;2023-05-09T06:59:50;6.18;;;3.95;;
64188;SDS011;50493;50.970;10.082;2023-05-09T07:02:15;8.98;;;4.68;;
64188;SDS011;50493;50.970;10.082;2023-05-09T07:04:40;9.10;;;5.75;;
64188;SDS011;50493;50.970;10.082;2023-05-09T07:07:06;5.18;;;3.88;;
64188;SDS011;50493;50.970;10.082;2023-05-09T07:09:31;5.22;;;3.92;;
64188;SDS011;50493;50.970;10.082;2023-05-09T07:11:58;4.35;;;3.45;;
64188;SDS011;50493;50.970;10.082;2023-05-09T07:14:23;5.97;;;4.07;;
64188;SDS011;50493;50.970;10.082;2023-05-09T07:16:49;4.20;;;3.45;;
64188;SDS011;50493;50.970;10.082;2023-05-09T07:19:14;4.95;;;3.35;;
64188;SDS011;50493;50.970;10.082;2023-05-09T07:21:40;5.47;;;4.38;;
64188;SDS011;50493;50.970;10.082;2023-05-09T07:24:05;5.50;;;4.00;;
64188;SDS011;50493;50.970;10.082;2023-05-09T07:26:31;5.75;;;4.30;;
64188;SDS011;50493;50.970;10.082;2023-05-09T07:28:57;6.57;;;4.93;;
64188;SDS011;50493;50.970;10.082;2023-05-09T07:31:23;7.95;;;5.40;;
64188;SDS011;50493;50.970;10.082;2023-05-09T07:33:48;5.18;;;4.50;;
64188;SDS011;50493;50.970;10.082;2023-05-09T07:36:13;6.15;;;4.97;;
64188;SDS011;50493;50.970;10.082;2023-05-09T07:38:40;5.93;;;5.15;;
64188;SDS011;50493;50.970;10.082;2023-05-09T07:41:06;7.85;;;5.60;;
64188;SDS011;50493;50.970;10.082;2023-05-09T07:43:31;8.00;;;5.57;;
64188;SDS011;50493;50.970;10.082;2023-05-09T07:45:58;6.28;;;5.22;;
64188;SDS011;50493;50.970;10.082;2023-05-09T07:48:23;7.30;;;5.55;;
64188;SDS011;50493;50.970;10.082;2023-05-09T07:50:49;7.70;;;5.80;;
64188;SDS011;50493;50.970;10.082;2023-05-09T07:53:14;7.68;;;6.03;;
64188;SDS011;50493;50.970;10.082;2023-05-09T07:55:40;7.80;;;5.95;;
64188;SDS011;50493;50.970;10.082;2023-05-09T07:58:05;8.65;;;5.40;;
64188;SDS011;50493;50.970;10.082;2023-05-09T08:00:30;7.65;;;5.50;;
64188;SDS011;50493;50.970;10.082;2023-05-09T08:02:57;5.57;;;4.38;;
64188;SDS011;50493;50.970;10.082;2023-05-09T08:05:22;8.15;;;6.10;;
64188;SDS011;50493;50.970;10.082;2023-05-09T08:07:48;7.18;;;5.53;;
64188;SDS011;50493;50.970;10.082;2023-05-09T08:10:13;8.40;;;6.40;;
64188;SDS011;50493;50.970;10.082;2023-05-09T08:12:39;5.75;;;5.15;;
64188;SDS011;50493;50.970;10.082;2023-05-09T08:15:05;7.20;;;6.50;;
64188;SDS011;50493;50.970;10.082;2023-05-09T08:17:31;7.65;;;6.13;;
64188;SDS011;50493;50.970;10.082;2023-05-09T08:19:57;6.72;;;5.00;;
64188;SDS011;50493;50.970;10.082;2023-05-09T08:22:23;6.80;;;5.60;;
64188;SDS011;50493;50.970;10.082;2023-05-09T08:24:48;6.60;;;4.90;;
64188;SDS011;50493;50.970;10.082;2023-05-09T08:27:14;6.88;;;5.35;;
64188;SDS011;50493;50.970;10.082;2023-05-09T08:29:39;5.70;;;4.07;;
64188;SDS011;50493;50.970;10.082;2023-05-09T08:32:05;4.97;;;4.15;;
64188;SDS011;50493;50.970;10.082;2023-05-09T08:34:30;6.18;;;5.25;;
64188;SDS011;50493;50.970;10.082;2023-05-09T08:36:59;8.63;;;5.70;;
64188;SDS011;50493;50.970;10.082;2023-05-09T08:39:25;6.65;;;5.35;;
64188;SDS011;50493;50.970;10.082;2023-05-09T08:41:50;9.48;;;5.57;;
64188;SDS011;50493;50.970;10.082;2023-05-09T08:44:17;5.97;;;4.65;;
64188;SDS011;50493;50.970;10.082;2023-05-09T08:46:45;7.07;;;4.82;;
64188;SDS011;50493;50.970;10.082;2023-05-09T08:49:13;7.38;;;5.90;;
64188;SDS011;50493;50.970;10.082;2023-05-09T08:51:39;8.75;;;6.38;;
64188;SDS011;50493;50.970;10.082;2023-05-09T08:54:06;7.78;;;6.05;;
64188;SDS011;50493;50.970;10.082;2023-05-09T08:56:32;6.45;;;4.85;;
64188;SDS011;50493;50.970;10.082;2023-05-09T08:58:59;6.88;;;6.03;;
64188;SDS011;50493;50.970;10.082;2023-05-09T09:01:24;7.80;;;6.60;;
64188;SDS011;50493;50.970;10.082;2023-05-09T09:03:53;7.55;;;6.55;;
64188;SDS011;50493;50.970;10.082;2023-05-09T09:06:18;7.75;;;5.80;;
64188;SDS011;50493;50.970;10.082;2023-05-09T09:08:45;8.02;;;6.63;;
64188;SDS011;50493;50.970;10.082;2023-05-09T09:11:14;8.10;;;6.43;;
64188;SDS011;50493;50.970;10.082;2023-05-09T09:13:40;8.73;;;6.93;;
64188;SDS011;50493;50.970;10.082;2023-05-09T09:16:08;8.70;;;6.10;;
64188;SDS011;50493;50.970;10.082;2023-05-09T09:18:35;7.97;;;6.40;;
64188;SDS011;50493;50.970;10.082;2023-05-09T09:21:03;9.68;;;6.15;;
64188;SDS011;50493;50.970;10.082;2023-05-09T09:23:38;7.97;;;5.90;;
64188;SDS011;50493;50.970;10.082;2023-05-09T09:26:06;8.48;;;6.35;;
64188;SDS011;50493;50.970;10.082;2023-05-09T09:28:33;9.80;;;6.22;;
64188;SDS011;50493;50.970;10.082;2023-05-09T09:30:59;6.05;;;5.30;;
64188;SDS011;50493;50.970;10.082;2023-05-09T09:33:25;8.13;;;6.25;;
64188;SDS011;50493;50.970;10.082;2023-05-09T09:35:53;9.60;;;6.18;;
64188;SDS011;50493;50.970;10.082;2023-05-09T09:38:20;6.78;;;5.30;;
64188;SDS011;50493;50.970;10.082;2023-05-09T09:40:54;8.50;;;5.82;;
64188;SDS011;50493;50.970;10.082;2023-05-09T09:43:25;7.00;;;5.63;;
64188;SDS011;50493;50.970;10.082;2023-05-09T09:45:52;9.88;;;6.65;;
64188;SDS011;50493;50.970;10.082;2023-05-09T09:48:17;7.88;;;5.93;;
64188;SDS011;50493;50.970;10.082;2023-05-09T09:50:47;6.80;;;5.38;;
64188;SDS011;50493;50.970;10.082;2023-05-09T09:53:12;7.55;;;6.45;;
64188;SDS011;50493;50.970;10.082;2023-05-09T09:55:38;8.15;;;6.32;;
64188;SDS011;50493;50.970;10.082;2023-05-09T09:58:17;7.45;;;5.60;;
64188;SDS011;50493;50.970;10.082;2023-05-09T10:00:52;7.28;;;5.75;;
64188;SDS011;50493;50.970;10.082;2023-05-09T10:03:33;7.40;;;6.30;;
64188;SDS011;50493;50.970;10.082;2023-05-09T10:06:00;7.63;;;6.18;;
64188;SDS011;50493;50.970;10.082;2023-05-09T10:08:25;7.93;;;5.85;;
64188;SDS011;50493;50.970;10.082;2023-05-09T10:10:51;6.85;;;5.78;;
64188;SDS011;50493;50.970;10.082;2023-05-09T10:13:17;5.95;;;5.35;;
64188;SDS011;50493;50.970;10.082;2023-05-09T10:15:44;7.20;;;5.85;;
64188;SDS011;50493;50.970;10.082;2023-05-09T10:18:10;6.38;;;5.35;;
64188;SDS011;50493;50.970;10.082;2023-05-09T10:20:38;7.30;;;6.28;;
64188;SDS011;50493;50.970;10.082;2023-05-09T10:23:05;9.23;;;5.63;;
64188;SDS011;50493;50.970;10.082;2023-05-09T10:25:34;6.13;;;5.35;;
64188;SDS011;50493;50.970;10.082;2023-05-09T10:28:03;6.63;;;5.43;;
64188;SDS011;50493;50.970;10.082;2023-05-09T10:30:37;5.97;;;4.78;;
64188;SDS011;50493;50.970;10.082;2023-05-09T10:33:08;7.15;;;5.10;;
64188;SDS011;50493;50.970;10.082;2023-05-09T10:35:36;6.78;;;4.80;;
64188;SDS011;50493;50.970;10.082;2023-05-09T10:38:04;6.20;;;5.28;;
64188;SDS011;50493;50.970;10.082;2023-05-09T10:40:31;6.57;;;5.50;;
64188;SDS011;50493;50.970;10.082;2023-05-09T10:42:57;6.85;;;4.90;;
64188;SDS011;50493;50.970;10.082;2023-05-09T10:45:23;6.22;;;5.20;;
64188;SDS011;50493;50.970;10.082;2023-05-09T10:47:50;6.82;;;5.63;;
64188;SDS011;50493;50.970;10.082;2023-05-09T10:50:17;6.50;;;5.00;;
64188;SDS011;50493;50.970;10.082;2023-05-09T10:55:34;6.45;;;5.10;;
64188;SDS011;50493;50.970;10.082;2023-05-09T10:58:00;5.43;;;4.68;;
64188;SDS011;50493;50.970;10.082;2023-05-09T11:00:42;7.65;;;4.80;;
64188;SDS011;50493;50.970;10.082;2023-05-09T11:03:09;6.57;;;4.90;;
64188;SDS011;50493;50.970;10.082;2023-05-09T11:05:37;5.85;;;5.20;;
64188;SDS011;50493;50.970;10.082;2023-05-09T11:08:19;6.35;;;5.25;;
64188;SDS011;50493;50.970;10.082;2023-05-09T11:10:47;6.70;;;4.95;;
64188;SDS011;50493;50.970;10.082;2023-05-09T11:13:13;7.13;;;4.78;;
64188;SDS011;50493;50.970;10.082;2023-05-09T11:15:49;6.20;;;4.93;;
64188;SDS011;50493;50.970;10.082;2023-05-09T11:18:16;5.88;;;5.10;;
64188;SDS011;50493;50.970;10.082;2023-05-09T11:20:42;6.53;;;4.50;;
64188;SDS011;50493;50.970;10.082;2023-05-09T11:23:08;5.88;;;5.13;;
64188;SDS011;50493;50.970;10.082;2023-05-09T11:25:39;6.35;;;5.57;;
64188;SDS011;50493;50.970;10.082;2023-05-09T11:28:06;6.85;;;4.75;;
64188;SDS011;50493;50.970;10.082;2023-05-09T11:30:35;6.25;;;5.03;;
64188;SDS011;50493;50.970;10.082;2023-05-09T11:33:04;5.90;;;5.05;;
64188;SDS011;50493;50.970;10.082;2023-05-09T11:35:32;5.95;;;4.50;;
64188;SDS011;50493;50.970;10.082;2023-05-09T11:38:01;5.50;;;4.70;;
64188;SDS011;50493;50.970;10.082;2023-05-09T11:40:28;6.68;;;4.88;;
64188;SDS011;50493;50.970;10.082;2023-05-09T11:42:54;7.97;;;4.90;;
64188;SDS011;50493;50.970;10.082;2023-05-09T11:45:21;6.15;;;4.82;;
64188;SDS011;50493;50.970;10.082;2023-05-09T11:47:48;6.15;;;4.43;;
64188;SDS011;50493;50.970;10.082;2023-05-09T11:50:15;6.55;;;4.43;;
64188;SDS011;50493;50.970;10.082;2023-05-09T11:52:42;6.03;;;4.57;;
64188;SDS011;50493;50.970;10.082;2023-05-09T11:55:08;6.22;;;4.80;;
64188;SDS011;50493;50.970;10.082;2023-05-09T11:57:38;6.68;;;4.90;;
64188;SDS011;50493;50.970;10.082;2023-05-09T12:00:04;5.28;;;4.50;;
64188;SDS011;50493;50.970;10.082;2023-05-09T12:02:30;6.65;;;4.60;;
64188;SDS011;50493;50.970;10.082;2023-05-09T12:05:04;8.35;;;4.72;;
64188;SDS011;50493;50.970;10.082;2023-05-09T12:07:31;6.13;;;4.45;;
64188;SDS011;50493;50.970;10.082;2023-05-09T12:09:57;7.78;;;4.82;;
64188;SDS011;50493;50.970;10.082;2023-05-09T12:14:51;5.87;;;4.43;;
64188;SDS011;50493;50.970;10.082;2023-05-09T12:17:17;5.68;;;4.40;;
64188;SDS011;50493;50.970;10.082;2023-05-09T12:19:43;4.95;;;4.45;;
64188;SDS011;50493;50.970;10.082;2023-05-09T12:22:08;6.15;;;4.80;;
64188;SDS011;50493;50.970;10.082;2023-05-09T12:24:34;5.45;;;3.90;;
64188;SDS011;50493;50.970;10.082;2023-05-09T12:27:02;5.72;;;3.80;;
64188;SDS011;50493;50.970;10.082;2023-05-09T12:29:29;5.50;;;4.38;;
64188;SDS011;50493;50.970;10.082;2023-05-09T12:31:55;5.25;;;4.15;;
64188;SDS011;50493;50.970;10.082;2023-05-09T12:34:22;6.20;;;4.57;;
64188;SDS011;50493;50.970;10.082;2023-05-09T12:36:47;6.78;;;4.35;;
64188;SDS011;50493;50.970;10.082;2023-05-09T12:39:15;7.40;;;4.50;;
64188;SDS011;50493;50.970;10.082;2023-05-09T12:41:42;4.63;;;4.18;;
64188;SDS011;50493;50.970;10.082;2023-05-09T12:44:16;6.47;;;4.20;;
64188;SDS011;50493;50.970;10.082;2023-05-09T12:46:51;5.13;;;3.70;;
64188;SDS011;50493;50.970;10.082;2023-05-09T12:49:20;5.05;;;4.15;;
64188;SDS011;50493;50.970;10.082;2023-05-09T12:51:46;5.68;;;3.80;;
64188;SDS011;50493;50.970;10.082;2023-05-09T12:54:13;6.97;;;5.50;;
64188;SDS011;50493;50.970;10.082;2023-05-09T12:56:38;5.45;;;4.40;;
64188;SDS011;50493;50.970;10.082;2023-05-09T12:59:04;4.78;;;4.28;;
64188;SDS011;50493;50.970;10.082;2023-05-09T13:01:38;4.95;;;4.40;;
64188;SDS011;50493;50.970;10.082;2023-05-09T13:04:04;5.63;;;3.85;;
64188;SDS011;50493;50.970;10.082;2023-05-09T13:06:31;4.60;;;3.75;;
64188;SDS011;50493;50.970;10.082;2023-05-09T13:08:57;6.18;;;4.45;;
64188;SDS011;50493;50.970;10.082;2023-05-09T13:11:24;5.88;;;4.20;;
64188;SDS011;50493;50.970;10.082;2023-05-09T13:13:49;4.82;;;3.70;;
64188;SDS011;50493;50.970;10.082;2023-05-09T13:16:16;5.90;;;4.60;;
64188;SDS011;50493;50.970;10.082;2023-05-09T13:18:42;5.43;;;3.65;;
64188;SDS011;50493;50.970;10.082;2023-05-09T13:21:07;5.97;;;4.35;;
64188;SDS011;50493;50.970;10.082;2023-05-09T13:23:32;7.72;;;3.70;;
64188;SDS011;50493;50.970;10.082;2023-05-09T13:25:58;5.25;;;3.92;;
64188;SDS011;50493;50.970;10.082;2023-05-09T13:28:23;5.10;;;3.40;;
64188;SDS011;50493;50.970;10.082;2023-05-09T13:30:48;6.20;;;4.65;;
64188;SDS011;50493;50.970;10.082;2023-05-09T13:33:15;5.55;;;3.75;;
64188;SDS011;50493;50.970;10.082;2023-05-09T13:35:40;4.90;;;3.90;;
64188;SDS011;50493;50.970;10.082;2023-05-09T13:38:05;3.60;;;3.17;;
64188;SDS011;50493;50.970;10.082;2023-05-09T13:40:31;5.95;;;4.55;;
64188;SDS011;50493;50.970;10.082;2023-05-09T13:42:56;5.40;;;3.72;;
64188;SDS011;50493;50.970;10.082;2023-05-09T13:45:21;4.78;;;3.50;;
64188;SDS011;50493;50.970;10.082;2023-05-09T13:47:47;5.03;;;3.88;;
64188;SDS011;50493;50.970;10.082;2023-05-09T13:50:14;4.88;;;3.40;;
64188;SDS011;50493;50.970;10.082;2023-05-09T13:52:39;5.78;;;4.50;;
64188;SDS011;50493;50.970;10.082;2023-05-09T13:55:05;4.90;;;3.53;;
64188;SDS011;50493;50.970;10.082;2023-05-09T13:57:31;5.20;;;4.20;;
64188;SDS011;50493;50.970;10.082;2023-05-09T13:59:56;5.22;;;3.88;;
64188;SDS011;50493;50.970;10.082;2023-05-09T14:02:22;7.03;;;4.00;;
64188;SDS011;50493;50.970;10.082;2023-05-09T14:04:48;5.80;;;3.80;;
64188;SDS011;50493;50.970;10.082;2023-05-09T14:07:15;5.68;;;4.05;;
64188;SDS011;50493;50.970;10.082;2023-05-09T14:09:41;7.07;;;4.45;;
64188;SDS011;50493;50.970;10.082;2023-05-09T14:12:08;5.65;;;4.15;;
64188;SDS011;50493;50.970;10.082;2023-05-09T14:14:33;5.13;;;4.50;;
64188;SDS011;50493;50.970;10.082;2023-05-09T14:16:59;5.25;;;4.60;;
64188;SDS011;50493;50.970;10.082;2023-05-09T14:19:25;5.22;;;4.30;;
64188;SDS011;50493;50.970;10.082;2023-05-09T14:21:51;8.73;;;4.00;;
64188;SDS011;50493;50.970;10.082;2023-05-09T14:24:18;5.43;;;4.18;;
64188;SDS011;50493;50.970;10.082;2023-05-09T14:26:43;5.88;;;3.90;;
64188;SDS011;50493;50.970;10.082;2023-05-09T14:29:09;5.57;;;3.97;;
64188;SDS011;50493;50.970;10.082;2023-05-09T14:31:34;4.20;;;3.70;;
64188;SDS011;50493;50.970;10.082;2023-05-09T14:34:00;5.13;;;4.00;;
64188;SDS011;50493;50.970;10.082;2023-05-09T14:36:26;4.97;;;4.10;;